Time;durP1;ratioP1;P1;durP2;ratioP2;P2;SDS_P1;SDS_P2;PMS_P1;PMS_P2;Temp;Humidity;BMP_temperature;BMP_pressure;BME280_temperature;BME280_humidity;BME280_pressure;Samples;Min_cycle;Max_cycle;Signal;HPM_P1;HPM_P2
2021/11/21 07:15:39;;;;;;;;;;;11.80;99.90;;;;;;4345890;46;20170;-76
2021/11/21 07:19:41;;;;;;;;;;;7.00;99.90;;;;;;4348152;31;20800;-76
2021/11/21 07:23:43;;;;;;;;;;;7.10;99.90;;;;;;4347590;39;20930;-76
2021/11/21 07:27:46;;;;;;;;;;;6.90;99.90;;;;;;4347534;54;19965;-76
2021/11/21 07:31:48;;;;;;;;;;;7.00;99.90;;;;;;4344712;54;19942;-76
2021/11/21 07:35:52;;;;;;;;;;;6.90;99.90;;;;;;4347756;54;19942;-76
2021/11/21 07:39:54;;;;;;;;;;;7.00;99.90;;;;;;4348604;54;19954;-76
2021/11/21 07:43:56;;;;;;;;;;;6.90;99.90;;;;;;4347008;54;19991;-76
2021/11/21 07:47:59;;;;;;;;;;;;;;;;;;4345694;47;20519;-76
2021/11/21 07:52:00;;;;;;;;;;;6.80;99.90;;;;;;4347318;54;19954;-76
2021/11/21 07:56:03;;;;;;;;;;;6.90;99.90;;;;;;4346145;47;19958;-76
2021/11/21 08:00:07;;;;;;;;;;;7.00;99.90;;;;;;4349291;31;20689;-76
2021/11/21 08:04:10;;;;;;;;;;;7.00;99.90;;;;;;4346321;54;19950;-77
2021/11/21 08:08:12;;;;;;;;;;;7.00;99.90;;;;;;4343082;47;20818;-76
2021/11/21 08:12:14;;;;;;;;;;;7.00;99.90;;;;;;4346267;47;20852;-76
2021/11/21 08:16:16;;;;;;;;;;;6.90;99.90;;;;;;4342326;54;20038;-72
2021/11/21 08:20:18;;;;;;;;;;;6.90;99.90;;;;;;4325224;54;19950;-72
2021/11/21 08:24:20;;;;;;;;;;;7.20;99.90;;;;;;4322905;54;19950;-72
2021/11/21 08:28:22;;;;;;;;;;;7.10;99.90;;;;;;4324249;54;19950;-73
2021/11/21 08:32:24;;;;;;;;;;;6.90;99.90;;;;;;4324737;47;19998;-72
2021/11/21 08:36:26;;;;;;;;;;;6.90;99.90;;;;;;4322857;47;19981;-73
2021/11/21 08:40:29;;;;;;;;;;;6.90;99.90;;;;;;4322035;54;20058;-73
2021/11/21 08:44:31;;;;;;;;;;;7.00;99.90;;;;;;4323816;47;19946;-73
2021/11/21 08:48:33;;;;;;;;;;;7.00;99.90;;;;;;4324927;54;19992;-72
2021/11/21 08:52:35;;;;;;;;;;;7.20;99.90;;;;;;4323561;54;19962;-74
2021/11/21 08:56:38;;;;;;;;;;;;;;;;;;4322920;47;19950;-73
2021/11/21 09:00:40;;;;;;;;;;;;;;;;;;4326335;54;19974;-73
2021/11/21 09:04:43;;;;;;;;;;;;;;;;;;4321348;54;19947;-73
2021/11/21 09:08:45;;;;;;;;;;;7.30;99.90;;;;;;4321546;47;19954;-71
2021/11/21 09:12:48;;;;;;;;;;;7.20;99.90;;;;;;4323319;39;20389;-72
2021/11/21 09:16:50;;;;;;;;;;;;;;;;;;4321726;54;20473;-72
2021/11/21 09:20:53;;;;;;;;;;;7.20;99.90;;;;;;4321694;54;19951;-73
2021/11/21 09:24:55;;;;;;;;;;;7.40;99.90;;;;;;4321892;54;20003;-72
2021/11/21 09:28:57;;;;;;;;;;;7.30;99.90;;;;;;4319624;39;20265;-73
2021/11/21 09:32:59;;;;;;;;;;;7.40;99.90;;;;;;4322499;54;20033;-72
2021/11/21 09:37:01;;;;;;;;;;;7.40;99.90;;;;;;4322880;54;19954;-74
2021/11/21 09:41:03;;;;;;;;;;;7.40;99.90;;;;;;4322651;54;20030;-74
2021/11/21 09:45:06;;;;;;;;;;;7.60;99.90;;;;;;4316934;54;19973;-74
2021/11/21 09:49:08;;;;;;;;;;;7.60;99.90;;;;;;4320344;47;19957;-73
2021/11/21 09:53:12;;;;;;;;;;;7.70;99.90;;;;;;4323521;54;20251;-73
2021/11/21 09:57:14;;;;;;;;;;;7.80;99.90;;;;;;4321836;54;19954;-73
2021/11/21 10:01:31;;;;;;;;;;;7.50;99.90;;;;;;4322500;39;20362;-73
2021/11/21 10:05:35;;;;;;;;;;;7.90;99.90;;;;;;4322386;54;20448;-73
2021/11/21 10:09:40;;;;;;;;;;;7.80;99.90;;;;;;4324912;54;20037;-73
2021/11/21 10:13:45;;;;;;;;;;;7.90;99.90;;;;;;4324854;54;20042;-73
2021/11/21 10:17:50;;;;;;;;;;;7.90;99.90;;;;;;4326027;54;20022;-72
2021/11/21 10:21:54;;;;;;;;;;;8.10;99.90;;;;;;4321911;54;20495;-73
2021/11/21 10:25:56;;;;;;;;;;;8.00;99.90;;;;;;4322115;54;19987;-72
2021/11/21 10:30:02;;;;;;;;;;;8.10;99.90;;;;;;4325473;39;20345;-73
2021/11/21 10:34:04;;;;;;;;;;;7.90;99.90;;;;;;4325608;54;19957;-74
2021/11/21 10:38:06;;;;;;;;;;;;;;;;;;4323934;54;19953;-73
2021/11/21 10:42:08;;;;;;;;;;;8.30;99.90;;;;;;4324915;46;19954;-73
2021/11/21 10:46:24;;;;;;;;;;;8.30;99.90;;;;;;4325239;54;19946;-76
2021/11/21 10:50:29;;;;;;;;;;;8.40;99.90;;;;;;4326866;54;19946;-74
2021/11/21 10:54:32;;;;;;;;;;;8.60;99.90;;;;;;4325577;39;20584;-73
2021/11/21 10:58:35;;;;;;;;;;;;;;;;;;4324223;54;20715;-73
2021/11/21 11:02:40;;;;;;;;;;;8.50;99.90;;;;;;4325891;54;20556;-73
2021/11/21 11:06:43;;;;;;;;;;;8.60;99.90;;;;;;4326322;54;20453;-73
2021/11/21 11:10:45;;;;;;;;;;;8.40;99.90;;;;;;4323169;54;20757;-74
2021/11/21 11:14:47;;;;;;;;;;;8.70;99.90;;;;;;4326232;54;20064;-73
2021/11/21 11:18:49;;;;;;;;;;;8.50;99.90;;;;;;4325456;54;19954;-73
2021/11/21 19:24:49;;;;;;;;;;;;;;;;;;4350517;54;19951;-78
2021/11/21 19:28:51;;;;;;;;;;;5.40;99.90;;;;;;4348353;46;19950;-77
2021/11/21 19:32:53;;;;;;;;;;;5.40;99.90;;;;;;4348628;54;20026;-79
2021/11/21 19:36:55;;;;;;;;;;;5.30;99.90;;;;;;4348154;54;19954;-78
2021/11/21 19:40:57;;;;;;;;;;;5.50;99.90;;;;;;4347981;54;19953;-78
2021/11/21 19:45:05;;;;;;;;;;;5.20;99.90;;;;;;4347537;54;19946;-79
2021/11/21 19:49:07;;;;;;;;;;;5.40;99.90;;;;;;4347920;54;19958;-79
2021/11/21 19:53:09;;;;;;;;;;;5.20;99.90;;;;;;4347984;54;19953;-77
2021/11/21 19:57:12;;;;;;;;;;;5.30;99.90;;;;;;4348211;47;19950;-80
2021/11/21 20:01:14;;;;;;;;;;;5.00;99.90;;;;;;4348477;54;19938;-78
2021/11/21 20:05:17;;;;;;;;;;;5.10;99.90;;;;;;4347532;46;20529;-79
2021/11/21 20:09:19;;;;;;;;;;;5.00;99.90;;;;;;4347887;39;20516;-78
2021/11/21 20:13:23;;;;;;;;;;;5.40;99.90;;;;;;4347675;54;19951;-78
2021/11/21 20:17:25;;;;;;;;;;;4.90;99.90;;;;;;4347525;54;19954;-79
2021/11/21 20:21:27;;;;;;;;;;;5.00;99.90;;;;;;4347988;39;20561;-77
2021/11/21 20:25:30;;;;;;;;;;;4.60;99.90;;;;;;4347484;54;19939;-78
2021/11/21 20:29:34;;;;;;;;;;;5.10;99.90;;;;;;4348078;54;19945;-78
2021/11/21 20:37:57;;;;;;;;;;;;;;;;;;4347384;54;19957;-79
2021/11/21 20:42:01;;;;;;;;;;;;;;;;;;4347847;54;19977;-78
2021/11/21 20:46:04;;;;;;;;;;;;;;;;;;4348283;54;19994;-78
2021/11/21 20:50:10;;;;;;;;;;;;;;;;;;4346662;47;19949;-77
2021/11/21 20:54:13;;;;;;;;;;;;;;;;;;4347151;47;19976;-78
2021/11/21 20:58:15;;;;;;;;;;;;;;;;;;4346654;54;19974;-79
2021/11/21 21:02:17;;;;;;;;;;;;;;;;;;4347175;54;19935;-77
2021/11/21 21:06:20;;;;;;;;;;;;;;;;;;4347472;47;19981;-78
2021/11/21 21:10:22;;;;;;;;;;;;;;;;;;4347348;54;19939;-78
2021/11/21 21:14:24;;;;;;;;;;;4.20;99.90;;;;;;4347582;39;20412;-78
2021/11/21 21:18:26;;;;;;;;;;;4.10;99.90;;;;;;4347081;54;19953;-79
2021/11/21 21:22:28;;;;;;;;;;;4.10;99.90;;;;;;4347013;47;19950;-78
2021/11/21 21:26:32;;;;;;;;;;;3.80;99.90;;;;;;4346683;47;19977;-80
2021/11/21 21:30:34;;;;;;;;;;;4.10;99.90;;;;;;4347380;39;20381;-78
2021/11/21 21:34:36;;;;;;;;;;;4.00;99.90;;;;;;4346563;54;19930;-78
2021/11/21 21:38:38;;;;;;;;;;;4.00;99.90;;;;;;4346576;54;19942;-78
2021/11/21 21:42:41;;;;;;;;;;;3.80;99.90;;;;;;4346083;54;19942;-77
2021/11/21 21:46:45;;;;;;;;;;;3.70;99.90;;;;;;4346391;54;19942;-80
2021/11/21 21:51:09;;;;;;;;;;;3.70;99.90;;;;;;4346667;39;20006;-79
2021/11/21 21:55:11;;;;;;;;;;;3.70;99.90;;;;;;4347289;54;19954;-78
2021/11/21 21:59:13;;;;;;;;;;;3.70;99.90;;;;;;4346070;54;19947;-79
2021/11/21 22:03:16;;;;;;;;;;;3.70;99.90;;;;;;4346601;47;19950;-77
2021/11/21 22:07:18;;;;;;;;;;;3.70;99.90;;;;;;4347378;54;19946;-78
2021/11/21 22:11:23;;;;;;;;;;;3.60;99.90;;;;;;4346994;46;20577;-78
2021/11/21 22:15:26;;;;;;;;;;;3.60;99.90;;;;;;4347555;39;20412;-79
2021/11/21 22:19:28;;;;;;;;;;;3.60;99.90;;;;;;4347100;54;19946;-78
2021/11/21 22:23:30;;;;;;;;;;;3.50;99.90;;;;;;4346990;54;19950;-78
2021/11/21 22:27:32;;;;;;;;;;;3.50;99.90;;;;;;4346529;54;19991;-77
2021/11/21 22:31:40;;;;;;;;;;;3.50;99.90;;;;;;4347058;54;19947;-79
2021/11/21 22:35:42;;;;;;;;;;;3.50;99.90;;;;;;4346435;47;19953;-78
2021/11/21 22:39:44;;;;;;;;;;;3.50;99.90;;;;;;4346403;47;20053;-77
2021/11/21 22:43:46;;;;;;;;;;;3.40;99.90;;;;;;4346683;54;19961;-78
2021/11/21 22:47:52;;;;;;;;;;;3.50;99.90;;;;;;4346796;54;19950;-77
2021/11/21 22:51:55;;;;;;;;;;;3.50;99.90;;;;;;4346563;54;19950;-78
2021/11/21 22:55:56;;;;;;;;;;;3.40;99.90;;;;;;4347511;39;20376;-78
2021/11/21 23:00:16;;;;;;;;;;;3.40;99.90;;;;;;4347194;54;19946;-77
2021/11/21 23:04:20;;;;;;;;;;;3.40;99.90;;;;;;4347070;47;19951;-77
2021/11/21 23:08:22;;;;;;;;;;;3.30;99.90;;;;;;4347797;54;19945;-78
2021/11/21 23:12:24;;;;;;;;;;;3.30;99.90;;;;;;4347639;54;20430;-78
2021/11/21 23:16:26;;;;;;;;;;;3.30;99.90;;;;;;4347593;54;19939;-79
2021/11/21 23:20:48;;;;;;;;;;;3.30;99.90;;;;;;4347641;47;19943;-77
2021/11/21 23:24:50;;;;;;;;;;;3.20;99.90;;;;;;4348141;47;19949;-78
2021/11/21 23:33:02;;;;;;;;;;;3.20;99.90;;;;;;4348088;54;20496;-78
2021/11/21 23:37:05;;;;;;;;;;;3.20;99.90;;;;;;4347906;51;19939;-78
2021/11/21 23:46:10;;;;;;;;;;;3.20;99.90;;;;;;4347492;54;19953;-77
2021/11/21 23:50:21;;;;;;;;;;;3.10;99.90;;;;;;4347664;54;19953;-78
2021/11/21 23:54:24;;;;;;;;;;;3.10;99.90;;;;;;4347953;54;19947;-78
2021/11/21 23:58:26;;;;;;;;;;;3.30;99.90;;;;;;4347907;54;19946;-76
